Stover, South Carolina
Current Conditions -  °F | °C
As of 8:15 AM on Saturday 25 Oct 2014 (Local Time) from KLKR Reporting Station
Heavy Rain Heavy Rain  
Wind Chill: 39°   Ceiling: Unl
Heat Index: 39°   Visibility: 3mi
Dew Point: 39°   Wind: 0mph
Humidity: 100%   Direction: NA
Pressure: 30.05"   Gusts: NA
Location:  34.5772°N, 81.1021°W
Report Text: KLKR 251215Z AUTO 00000KT 3SM +RA CLR 04/04 A3005 RMK AO2
Loading
Personal Weather Stations






























Interactive Weather Map
Tropical Storm Tracking
New forecast layout! Learn more

10-Day Weather Forecast

Advertisements
Track Severe Weather on mobile